Time;durP1;ratioP1;P1;durP2;ratioP2;P2;SDS_P1;SDS_P2;PMS_P1;PMS_P2;Temp;Humidity;BMP_temperature;BMP_pressure;BME280_temperature;BME280_humidity;BME280_pressure;Samples;Min_cycle;Max_cycle;Signal;HPM_P1;HPM_P2
2024/01/21 00:01:00;;;;;;;3.05;0.45;;;-0.70;98.10;;;;;;5065604;28;20537;-68
2024/01/21 00:03:25;;;;;;;1.30;0.57;;;-0.70;96.00;;;;;;5067664;28;20044;-66
2024/01/21 00:05:51;;;;;;;0.57;0.40;;;-0.60;99.10;;;;;;5060724;28;20037;-68
2024/01/21 00:08:17;;;;;;;0.70;0.50;;;-0.70;97.60;;;;;;5065467;28;20417;-68
2024/01/21 00:10:42;;;;;;;1.60;0.70;;;-0.60;90.90;;;;;;5053678;28;20037;-68
2024/01/21 00:13:08;;;;;;;0.70;0.50;;;-0.40;91.60;;;;;;5064467;28;20582;-66
2024/01/21 00:15:33;;;;;;;1.23;0.50;;;-0.40;91.20;;;;;;5072022;28;20045;-66
2024/01/21 00:17:59;;;;;;;1.27;0.35;;;-0.40;93.40;;;;;;5064639;28;20056;-66
2024/01/21 00:20:24;;;;;;;2.33;0.57;;;-0.30;92.40;;;;;;5048105;28;20166;-69
2024/01/21 00:22:50;;;;;;;1.48;0.63;;;-0.40;93.80;;;;;;5055502;28;20048;-67
2024/01/21 00:25:15;;;;;;;1.10;0.60;;;-0.40;89.50;;;;;;5049712;28;20049;-67
2024/01/21 00:27:41;;;;;;;2.92;0.80;;;-0.30;89.70;;;;;;5048661;28;20064;-67
2024/01/21 00:30:07;;;;;;;1.20;0.52;;;-0.20;86.00;;;;;;5048447;28;20557;-69
2024/01/21 00:32:32;;;;;;;0.77;0.43;;;-0.20;90.50;;;;;;5053569;28;20041;-69
2024/01/21 00:34:58;;;;;;;1.55;0.57;;;0.00;84.30;;;;;;5054225;28;20044;-68
2024/01/21 00:37:23;;;;;;;5.22;0.65;;;0.10;83.00;;;;;;5049285;28;20037;-68
2024/01/21 00:39:49;;;;;;;1.25;0.63;;;0.20;81.40;;;;;;5053681;28;20055;-67
2024/01/21 00:42:14;;;;;;;2.03;0.70;;;0.20;83.30;;;;;;5048798;28;20448;-67
2024/01/21 00:44:40;;;;;;;3.30;0.70;;;0.20;81.30;;;;;;5044801;28;20040;-69
2024/01/21 00:47:06;;;;;;;1.33;0.40;;;0.20;82.70;;;;;;5040763;28;20195;-67
2024/01/21 00:49:32;;;;;;;0.90;0.63;;;0.20;81.60;;;;;;5048551;28;20037;-69
2024/01/21 00:51:58;;;;;;;1.05;0.50;;;0.20;82.20;;;;;;5046951;28;20058;-69
2024/01/21 00:54:24;;;;;;;2.25;0.57;;;0.20;81.10;;;;;;5048128;28;20032;-68
2024/01/21 00:56:50;;;;;;;1.23;0.77;;;0.20;81.50;;;;;;5043547;28;20420;-69
2024/01/21 00:59:15;;;;;;;1.38;0.73;;;0.30;81.10;;;;;;5045178;28;20029;-69
2024/01/21 01:01:41;;;;;;;2.30;0.70;;;0.20;80.40;;;;;;5048637;28;20037;-67
2024/01/21 01:04:07;;;;;;;1.35;0.68;;;0.20;82.80;;;;;;5048033;28;20047;-69
2024/01/21 01:06:33;;;;;;;2.03;1.00;;;0.20;82.20;;;;;;5046280;28;20038;-69
2024/01/21 01:08:59;;;;;;;18.42;1.55;;;0.20;84.60;;;;;;5047702;28;20091;-69
2024/01/21 01:11:25;;;;;;;3.60;1.00;;;0.20;85.60;;;;;;5047373;28;20041;-69
2024/01/21 01:13:50;;;;;;;2.85;1.23;;;0.20;82.60;;;;;;5049095;28;20481;-69
2024/01/21 01:16:16;;;;;;;2.45;1.20;;;0.30;82.10;;;;;;5049480;28;20119;-67
2024/01/21 01:18:42;;;;;;;3.60;0.98;;;0.30;81.10;;;;;;5049779;28;20497;-66
2024/01/21 01:21:10;;;;;;;5.13;1.10;;;0.30;81.60;;;;;;5047854;28;20099;-67
2024/01/21 01:23:35;;;;;;;3.20;1.42;;;0.30;85.30;;;;;;5048130;28;20047;-69
2024/01/21 01:26:01;;;;;;;3.15;0.82;;;0.30;82.50;;;;;;5047728;28;20053;-69
2024/01/21 01:28:27;;;;;;;2.47;1.15;;;0.20;85.00;;;;;;5045131;28;20127;-69
2024/01/21 01:30:52;;;;;;;2.78;1.10;;;0.20;84.60;;;;;;5051380;28;20036;-69
2024/01/21 01:33:18;;;;;;;2.25;1.20;;;0.20;82.10;;;;;;5062757;28;20119;-69
2024/01/21 01:35:43;;;;;;;3.15;1.30;;;0.30;83.80;;;;;;5058121;28;20040;-67
2024/01/21 01:38:12;;;;;;;1.83;1.00;;;0.30;85.10;;;;;;5062330;28;20129;-69
2024/01/21 01:40:38;;;;;;;2.70;1.13;;;0.30;82.60;;;;;;5067396;28;20052;-65
2024/01/21 01:43:04;;;;;;;3.72;1.00;;;0.40;81.60;;;;;;5061421;28;20033;-69
2024/01/21 01:45:30;;;;;;;2.10;1.05;;;0.50;78.90;;;;;;5054027;28;20110;-69
2024/01/21 01:47:58;;;;;;;2.80;1.08;;;0.60;78.00;;;;;;5071209;28;20044;-68
2024/01/21 01:50:26;;;;;;;1.98;1.17;;;0.60;76.50;;;;;;5051435;28;20094;-69
2024/01/21 01:52:52;;;;;;;2.50;1.13;;;0.70;74.30;;;;;;5058350;28;20048;-68
2024/01/21 01:55:18;;;;;;;2.30;1.23;;;0.70;76.50;;;;;;5065180;28;20047;-70
2024/01/21 01:57:47;;;;;;;1.67;1.20;;;0.70;77.20;;;;;;5063359;28;20400;-69
2024/01/21 02:00:13;;;;;;;2.92;1.10;;;0.70;77.20;;;;;;5060529;28;20094;-67
2024/01/21 02:02:42;;;;;;;2.38;1.08;;;0.70;75.60;;;;;;5043910;28;20052;-68
2024/01/21 02:05:08;;;;;;;2.60;0.82;;;0.70;73.70;;;;;;5047177;28;20069;-64
2024/01/21 02:07:34;;;;;;;4.53;1.27;;;0.70;74.70;;;;;;5051123;28;20071;-69
2024/01/21 02:10:01;;;;;;;1.85;1.02;;;0.80;73.90;;;;;;5044956;28;20488;-70
2024/01/21 02:12:27;;;;;;;2.83;1.10;;;0.80;73.70;;;;;;5046670;28;20072;-69
2024/01/21 02:14:53;;;;;;;1.15;0.82;;;0.90;72.40;;;;;;5046464;28;20392;-69
2024/01/21 02:17:18;;;;;;;1.70;0.90;;;0.90;71.80;;;;;;5044816;28;20048;-68
2024/01/21 02:19:44;;;;;;;8.60;1.02;;;0.90;73.60;;;;;;5047181;28;20033;-69
2024/01/21 02:22:09;;;;;;;1.60;0.82;;;0.80;74.30;;;;;;5046197;28;20040;-66
2024/01/21 02:24:35;;;;;;;4.55;0.98;;;0.90;73.70;;;;;;5047168;28;20094;-69
2024/01/21 02:27:00;;;;;;;4.85;1.00;;;0.90;71.30;;;;;;5042810;28;20063;-69
2024/01/21 02:29:26;;;;;;;1.65;0.75;;;0.90;73.50;;;;;;5045925;28;20389;-69
2024/01/21 02:31:53;;;;;;;1.52;1.08;;;0.90;71.40;;;;;;5045078;28;20068;-68
2024/01/21 02:34:19;;;;;;;1.95;0.80;;;1.00;68.80;;;;;;5043303;28;20056;-69
2024/01/21 02:36:45;;;;;;;1.80;0.88;;;1.00;71.00;;;;;;5047183;28;20045;-69
2024/01/21 02:39:11;;;;;;;1.90;1.00;;;1.00;71.30;;;;;;5049918;28;20064;-69
2024/01/21 02:41:36;;;;;;;1.92;1.00;;;1.00;70.10;;;;;;5044957;28;20155;-69
2024/01/21 02:44:02;;;;;;;3.53;1.33;;;1.00;71.40;;;;;;5047070;28;20477;-69
2024/01/21 02:46:28;;;;;;;1.33;0.85;;;1.00;68.40;;;;;;5045904;28;20564;-68
2024/01/21 02:48:53;;;;;;;1.98;1.00;;;1.00;72.90;;;;;;5046602;28;20479;-67
2024/01/21 02:51:19;;;;;;;2.33;1.30;;;1.00;69.60;;;;;;5045756;28;20037;-67
2024/01/21 02:53:45;;;;;;;3.10;1.10;;;1.10;66.30;;;;;;5044596;28;20064;-69
2024/01/21 02:56:23;;;;;;;2.38;1.35;;;1.10;66.60;;;;;;5046490;28;20076;-68
2024/01/21 02:58:50;;;;;;;1.88;1.05;;;1.10;68.60;;;;;;5046782;28;20033;-69
2024/01/21 03:01:16;;;;;;;1.63;1.00;;;1.10;67.40;;;;;;5053650;28;20595;-69
2024/01/21 03:03:42;;;;;;;2.55;1.13;;;1.10;68.90;;;;;;5069937;28;20120;-69
2024/01/21 03:06:07;;;;;;;11.68;1.67;;;1.10;64.60;;;;;;5063243;28;20036;-68
2024/01/21 03:08:33;;;;;;;2.92;1.60;;;1.10;68.90;;;;;;5061789;28;20170;-70
2024/01/21 03:10:58;;;;;;;3.90;1.40;;;1.10;69.70;;;;;;5060769;28;20040;-70
2024/01/21 03:13:24;;;;;;;2.40;1.50;;;1.00;70.00;;;;;;5065555;28;20052;-68
2024/01/21 03:15:50;;;;;;;4.90;1.65;;;1.10;68.20;;;;;;5056185;28;20064;-70
2024/01/21 03:18:15;;;;;;;2.80;1.40;;;1.00;68.10;;;;;;5065238;28;20093;-67
2024/01/21 03:20:41;;;;;;;2.53;1.42;;;1.10;66.90;;;;;;5060928;28;20043;-69
2024/01/21 03:23:06;;;;;;;2.38;1.23;;;1.10;66.60;;;;;;5060900;28;20033;-68
2024/01/21 03:25:32;;;;;;;3.85;1.48;;;1.00;68.60;;;;;;5063614;28;20037;-67
2024/01/21 03:27:57;;;;;;;2.35;1.38;;;1.00;68.50;;;;;;5058868;28;20047;-69
2024/01/21 03:30:23;;;;;;;2.75;1.55;;;1.00;67.10;;;;;;5062383;28;20484;-69
2024/01/21 03:32:48;;;;;;;9.55;3.45;;;1.10;67.70;;;;;;5075988;28;20101;-71
2024/01/21 03:35:14;;;;;;;2.78;1.63;;;1.00;66.40;;;;;;5061212;28;20313;-69
2024/01/21 03:37:40;;;;;;;3.35;1.45;;;1.10;64.00;;;;;;5068794;28;20644;-69
2024/01/21 03:40:06;;;;;;;4.30;1.60;;;1.00;67.50;;;;;;5071726;28;20048;-69
2024/01/21 03:42:32;;;;;;;3.28;1.85;;;1.00;66.00;;;;;;5063021;28;20041;-66
2024/01/21 03:44:57;;;;;;;4.65;1.67;;;1.00;68.10;;;;;;5066624;28;20036;-69
2024/01/21 03:47:23;;;;;;;5.00;1.90;;;1.00;67.80;;;;;;5061906;28;20044;-67
2024/01/21 03:49:48;;;;;;;3.10;1.75;;;0.90;67.00;;;;;;5066190;28;20039;-70
2024/01/21 03:52:14;;;;;;;4.57;1.80;;;0.90;69.30;;;;;;5064357;28;20119;-68
2024/01/21 03:54:39;;;;;;;5.45;2.08;;;0.90;70.00;;;;;;5066047;28;20064;-68
2024/01/21 03:57:05;;;;;;;3.33;1.65;;;0.80;73.10;;;;;;5068521;28;20052;-68
2024/01/21 03:59:30;;;;;;;2.83;1.60;;;0.70;74.50;;;;;;5066933;28;20584;-69
2024/01/21 04:01:56;;;;;;;3.13;1.70;;;0.70;73.00;;;;;;5066533;28;20495;-69
2024/01/21 04:04:21;;;;;;;4.65;1.88;;;0.70;74.20;;;;;;5070344;28;20790;-67
2024/01/21 04:06:47;;;;;;;3.20;1.75;;;0.80;71.90;;;;;;5068745;28;20036;-68
2024/01/21 04:09:13;;;;;;;5.25;2.00;;;0.80;73.40;;;;;;5069520;28;20037;-67
2024/01/21 04:11:44;;;;;;;4.47;2.13;;;0.80;74.40;;;;;;5068014;28;20036;-66
2024/01/21 04:14:10;;;;;;;6.68;1.92;;;0.90;71.90;;;;;;5068576;28;20112;-68
2024/01/21 04:16:36;;;;;;;2.85;1.52;;;1.00;70.00;;;;;;5069807;28;20135;-69
2024/01/21 04:19:01;;;;;;;3.75;1.85;;;1.00;73.60;;;;;;5073908;28;20040;-67
2024/01/21 04:21:26;;;;;;;3.60;1.73;;;1.00;73.50;;;;;;5069582;28;20459;-69
2024/01/21 04:23:52;;;;;;;3.65;1.85;;;1.00;71.50;;;;;;5070768;28;20480;-68
2024/01/21 04:26:19;;;;;;;3.15;1.60;;;1.00;70.90;;;;;;5071628;28;20041;-68
2024/01/21 04:28:44;;;;;;;4.95;2.00;;;1.10;70.00;;;;;;5070747;28;20032;-68
2024/01/21 04:31:10;;;;;;;3.42;1.80;;;1.10;70.20;;;;;;5059948;28;20526;-67
2024/01/21 04:33:36;;;;;;;2.50;1.42;;;1.10;70.40;;;;;;5072216;28;20486;-69
2024/01/21 04:36:03;;;;;;;2.10;1.30;;;1.20;69.40;;;;;;5069903;28;20393;-67
2024/01/21 04:38:28;;;;;;;2.65;1.55;;;1.20;70.40;;;;;;5072458;28;20052;-68
2024/01/21 04:40:54;;;;;;;5.18;1.92;;;1.20;70.40;;;;;;5069391;28;20036;-68
2024/01/21 04:43:19;;;;;;;2.65;1.70;;;1.20;70.10;;;;;;5071593;28;20102;-69
2024/01/21 04:45:45;;;;;;;2.88;1.45;;;1.20;71.00;;;;;;5062680;28;20488;-69
2024/01/21 04:48:10;;;;;;;4.80;2.10;;;1.30;67.10;;;;;;5063663;28;20079;-66
2024/01/21 04:50:36;;;;;;;5.70;1.73;;;1.30;68.60;;;;;;5064544;28;20095;-68
2024/01/21 04:53:01;;;;;;;5.65;2.13;;;1.30;69.40;;;;;;5062037;28;20033;-68
2024/01/21 04:55:27;;;;;;;5.38;2.03;;;1.20;73.00;;;;;;5064789;28;20040;-68
2024/01/21 04:57:53;;;;;;;2.75;1.60;;;1.20;70.30;;;;;;5067785;28;20040;-69
2024/01/21 05:00:19;;;;;;;3.95;2.05;;;1.20;72.10;;;;;;5064065;28;20480;-69
2024/01/21 05:02:44;;;;;;;3.78;1.67;;;1.20;72.00;;;;;;5064351;28;20130;-65
2024/01/21 05:05:10;;;;;;;2.40;1.35;;;1.20;73.20;;;;;;5069474;28;20067;-69
2024/01/21 05:07:35;;;;;;;2.53;1.75;;;1.20;71.10;;;;;;5067325;28;20194;-67
2024/01/21 05:10:01;;;;;;;2.65;1.60;;;1.20;71.50;;;;;;5068293;28;20071;-65
2024/01/21 05:12:27;;;;;;;4.85;1.88;;;1.20;72.10;;;;;;5065628;28;20040;-69
2024/01/21 05:14:52;;;;;;;8.95;1.92;;;1.20;70.10;;;;;;5065896;28;20060;-69
2024/01/21 05:17:18;;;;;;;3.50;1.80;;;1.20;72.50;;;;;;5065149;28;20156;-67
2024/01/21 05:19:43;;;;;;;4.70;2.13;;;1.20;73.60;;;;;;5067547;28;20454;-68
2024/01/21 05:22:09;;;;;;;4.47;2.22;;;1.20;72.00;;;;;;5068266;28;20066;-69
2024/01/21 05:24:35;;;;;;;5.30;1.85;;;1.20;71.90;;;;;;5067518;28;20046;-67
2024/01/21 05:27:01;;;;;;;2.28;1.35;;;1.30;69.60;;;;;;5060319;28;20165;-68
2024/01/21 05:29:27;;;;;;;3.70;1.90;;;1.30;69.10;;;;;;5065963;28;20496;-69
2024/01/21 05:31:52;;;;;;;4.15;1.85;;;1.30;72.60;;;;;;5061275;28;20435;-68
2024/01/21 05:34:18;;;;;;;4.13;1.67;;;1.30;72.60;;;;;;5056714;28;20123;-68
2024/01/21 05:36:44;;;;;;;3.45;2.00;;;1.30;70.90;;;;;;5067523;28;20055;-69
2024/01/21 05:39:09;;;;;;;2.75;1.60;;;1.30;72.90;;;;;;5066395;28;20047;-68
2024/01/21 05:41:35;;;;;;;4.15;1.50;;;1.30;71.40;;;;;;5058644;28;20500;-68
2024/01/21 05:44:00;;;;;;;4.22;1.80;;;1.30;73.70;;;;;;5064259;28;20040;-68
2024/01/21 05:46:26;;;;;;;2.92;1.48;;;1.30;73.90;;;;;;5067613;28;20047;-69
2024/01/21 05:48:52;;;;;;;4.57;1.95;;;1.20;72.60;;;;;;5062843;28;20127;-69
2024/01/21 05:51:17;;;;;;;5.15;1.77;;;1.20;75.00;;;;;;5065640;28;20116;-69
2024/01/21 05:53:43;;;;;;;4.22;2.30;;;1.20;72.10;;;;;;5067123;28;20051;-68
2024/01/21 05:56:09;;;;;;;2.67;1.60;;;1.20;72.30;;;;;;5059332;28;20559;-66
2024/01/21 05:58:37;;;;;;;3.97;2.03;;;1.20;73.80;;;;;;5069084;28;20040;-69
2024/01/21 06:01:03;;;;;;;3.08;1.60;;;1.10;75.60;;;;;;5060397;28;20040;-68
2024/01/21 06:03:28;;;;;;;3.88;2.28;;;1.10;73.90;;;;;;5045659;28;20506;-68
2024/01/21 06:05:54;;;;;;;4.45;2.08;;;1.10;74.90;;;;;;5046877;28;20470;-68
2024/01/21 06:08:19;;;;;;;4.47;2.20;;;1.10;75.40;;;;;;5047035;28;20029;-68
2024/01/21 06:10:45;;;;;;;6.82;2.40;;;1.10;74.00;;;;;;5042867;28;20037;-67
2024/01/21 06:13:10;;;;;;;5.90;2.60;;;1.00;73.70;;;;;;5046312;28;20535;-66
2024/01/21 06:15:36;;;;;;;3.70;2.08;;;1.00;75.20;;;;;;5048391;28;20072;-69
2024/01/21 06:18:01;;;;;;;4.43;2.38;;;1.00;76.30;;;;;;5047355;28;20029;-68
2024/01/21 06:20:27;;;;;;;4.82;2.15;;;0.90;76.70;;;;;;5048266;28;20045;-69
2024/01/21 06:22:52;;;;;;;3.08;1.88;;;0.90;75.30;;;;;;5044988;28;20064;-69
2024/01/21 06:25:18;;;;;;;4.88;2.42;;;0.90;75.30;;;;;;5043375;28;20076;-67
2024/01/21 06:27:44;;;;;;;4.35;2.30;;;0.90;74.70;;;;;;5044729;28;20052;-68
2024/01/21 06:30:21;;;;;;;5.65;2.42;;;0.90;76.70;;;;;;5044501;28;20033;-70
2024/01/21 06:32:47;;;;;;;4.18;2.30;;;0.80;76.80;;;;;;5045148;28;20048;-68
2024/01/21 06:35:12;;;;;;;6.20;2.42;;;0.80;77.40;;;;;;5045835;28;20029;-68
2024/01/21 06:37:38;;;;;;;5.53;2.55;;;0.80;77.30;;;;;;5041115;28;20452;-67
2024/01/21 06:40:04;;;;;;;4.47;2.30;;;0.70;79.20;;;;;;5043622;28;20048;-68
2024/01/21 06:42:30;;;;;;;4.43;2.45;;;0.70;78.70;;;;;;5045409;28;20067;-66
2024/01/21 06:44:55;;;;;;;4.10;2.45;;;0.60;81.60;;;;;;5043264;28;20064;-69
2024/01/21 06:47:21;;;;;;;5.28;2.55;;;0.60;81.10;;;;;;5040772;28;20065;-69
2024/01/21 06:49:47;;;;;;;4.10;2.70;;;0.50;80.20;;;;;;5041235;28;20208;-68
2024/01/21 06:52:12;;;;;;;11.15;5.53;;;0.50;81.90;;;;;;5043527;28;20035;-66
2024/01/21 06:54:38;;;;;;;5.32;2.92;;;0.30;85.80;;;;;;5043447;28;20033;-67
2024/01/21 06:57:04;;;;;;;8.32;2.70;;;0.20;86.50;;;;;;5042859;28;20420;-67
2024/01/21 06:59:29;;;;;;;10.13;3.25;;;0.20;84.90;;;;;;5042637;28;20458;-66
2024/01/21 07:01:55;;;;;;;6.22;3.20;;;0.30;85.70;;;;;;5058526;28;20040;-68
2024/01/21 07:04:21;;;;;;;7.38;3.67;;;0.30;82.70;;;;;;5063641;28;20040;-66
2024/01/21 07:06:46;;;;;;;5.97;2.80;;;0.30;84.30;;;;;;5062391;28;20052;-68
2024/01/21 07:09:12;;;;;;;6.90;3.00;;;0.30;84.20;;;;;;5065131;28;20108;-69
2024/01/21 07:11:41;;;;;;;6.78;3.03;;;0.30;85.50;;;;;;5064441;28;20036;-67
2024/01/21 07:14:07;;;;;;;5.28;2.83;;;0.30;84.40;;;;;;5058161;28;20641;-69
2024/01/21 07:16:32;;;;;;;4.88;2.85;;;0.30;85.80;;;;;;5064856;28;20053;-67
2024/01/21 07:18:58;;;;;;;6.60;3.28;;;0.30;86.70;;;;;;5059375;28;20032;-68
2024/01/21 07:21:23;;;;;;;6.35;2.97;;;0.30;87.80;;;;;;5064125;28;20036;-68
2024/01/21 07:23:49;;;;;;;7.03;3.50;;;0.30;89.10;;;;;;5064529;28;20823;-69
2024/01/21 07:26:14;;;;;;;6.90;3.75;;;0.30;89.60;;;;;;5066815;28;20052;-69
2024/01/21 07:28:47;;;;;;;8.02;3.60;;;0.40;88.00;;;;;;5075928;28;20040;-68
2024/01/21 07:31:13;;;;;;;7.50;3.28;;;0.40;89.90;;;;;;5069093;28;20547;-69
2024/01/21 07:33:39;;;;;;;7.35;3.33;;;0.40;90.70;;;;;;5070659;28;20036;-69
2024/01/21 07:36:04;;;;;;;7.47;3.58;;;0.40;89.30;;;;;;5069800;28;20044;-67
2024/01/21 07:38:30;;;;;;;7.85;3.00;;;0.50;90.10;;;;;;5068610;28;20047;-68
2024/01/21 07:40:56;;;;;;;10.05;3.38;;;0.40;91.30;;;;;;5071280;28;20033;-66
2024/01/21 07:43:22;;;;;;;8.02;3.75;;;0.40;90.80;;;;;;5069617;28;20500;-68
2024/01/21 07:45:47;;;;;;;7.40;3.42;;;0.50;91.40;;;;;;5062612;28;20036;-69
2024/01/21 07:48:13;;;;;;;7.28;3.30;;;0.50;91.00;;;;;;5067482;28;20476;-70
2024/01/21 07:50:39;;;;;;;6.00;3.03;;;0.50;90.70;;;;;;5062029;28;20044;-72
2024/01/21 07:53:05;;;;;;;6.82;3.83;;;0.60;90.50;;;;;;5070138;28;20460;-73
2024/01/21 07:55:30;;;;;;;13.50;4.47;;;0.50;90.70;;;;;;5076987;28;20040;-72
2024/01/21 07:57:56;;;;;;;11.00;4.03;;;0.50;91.40;;;;;;5069417;28;20404;-70
2024/01/21 08:00:23;;;;;;;12.70;4.35;;;0.40;91.60;;;;;;5066412;28;20097;-74
2024/01/21 08:02:48;;;;;;;9.18;4.53;;;0.30;91.40;;;;;;5073962;28;20542;-71
2024/01/21 08:05:14;;;;;;;7.25;4.07;;;0.30;91.90;;;;;;5061593;28;20042;-71
2024/01/21 08:07:39;;;;;;;9.95;5.10;;;0.30;92.20;;;;;;5067503;28;20048;-71
2024/01/21 08:10:06;;;;;;;13.30;4.68;;;0.20;91.40;;;;;;5068472;28;20047;-69
2024/01/21 08:12:31;;;;;;;19.80;5.43;;;0.20;92.50;;;;;;5083345;28;20048;-68
2024/01/21 08:14:57;;;;;;;12.38;5.25;;;0.10;92.50;;;;;;5080813;28;20481;-66
2024/01/21 08:17:22;;;;;;;12.80;5.60;;;0.10;92.90;;;;;;5072910;28;20475;-71
2024/01/21 08:19:48;;;;;;;10.20;5.03;;;0.10;92.80;;;;;;5069288;28;20036;-70
2024/01/21 08:22:14;;;;;;;11.18;5.72;;;0.00;92.90;;;;;;5078552;28;20047;-73
2024/01/21 08:24:39;;;;;;;11.93;5.75;;;-0.10;93.40;;;;;;5076476;28;20527;-69
2024/01/21 08:27:05;;;;;;;14.73;6.70;;;-0.10;94.80;;;;;;5068640;28;20063;-71
2024/01/21 08:29:31;;;;;;;10.20;5.30;;;-0.20;94.60;;;;;;5068372;28;20045;-71
2024/01/21 08:31:59;;;;;;;14.50;6.60;;;-0.20;94.50;;;;;;5064524;28;20151;-75
2024/01/21 08:34:25;;;;;;;15.05;7.05;;;-0.20;94.30;;;;;;5075518;28;20045;-72
2024/01/21 08:36:50;;;;;;;13.13;6.47;;;-0.20;94.90;;;;;;5073624;28;20148;-71
2024/01/21 08:39:16;;;;;;;15.18;6.25;;;-0.30;95.00;;;;;;5083954;28;20550;-71
2024/01/21 08:41:41;;;;;;;14.10;6.43;;;-0.20;95.30;;;;;;5068203;28;20517;-70
2024/01/21 08:44:07;;;;;;;11.43;6.68;;;-0.30;95.90;;;;;;5058777;28;20104;-70
2024/01/21 08:46:32;;;;;;;14.07;6.20;;;-0.30;95.90;;;;;;5053520;28;20032;-71
2024/01/21 08:48:58;;;;;;;14.90;6.25;;;-0.20;94.90;;;;;;5064996;28;20045;-70
2024/01/21 08:51:24;;;;;;;13.88;6.63;;;-0.30;96.00;;;;;;5066935;28;20079;-73
2024/01/21 08:53:56;;;;;;;15.32;6.22;;;-0.30;95.80;;;;;;5066786;28;20048;-73
2024/01/21 08:56:24;;;;;;;14.90;6.82;;;-0.30;96.20;;;;;;5073262;28;20684;-71
2024/01/21 08:58:50;;;;;;;13.95;6.53;;;-0.30;95.90;;;;;;5066047;28;20120;-70
2024/01/21 09:01:16;;;;;;;15.88;7.45;;;-0.20;95.90;;;;;;5070252;28;20493;-69
2024/01/21 09:03:41;;;;;;;14.55;7.13;;;-0.10;95.30;;;;;;5065512;28;20044;-70
2024/01/21 09:06:07;;;;;;;13.80;6.63;;;0.00;96.00;;;;;;5052157;28;20055;-70
2024/01/21 09:08:33;;;;;;;14.35;6.82;;;0.00;96.40;;;;;;5066849;28;20063;-69
2024/01/21 09:10:58;;;;;;;15.65;7.13;;;0.10;94.80;;;;;;5066090;28;20408;-67
2024/01/21 09:13:24;;;;;;;16.80;7.60;;;0.00;95.60;;;;;;5066113;28;20539;-68
2024/01/21 09:15:50;;;;;;;15.15;6.28;;;0.00;94.20;;;;;;5063080;28;20055;-67
2024/01/21 09:18:15;;;;;;;15.30;6.82;;;0.00;94.40;;;;;;5066664;28;20063;-69
2024/01/21 09:20:41;;;;;;;14.80;6.88;;;0.00;97.30;;;;;;5062915;28;20032;-64
2024/01/21 09:23:06;;;;;;;17.17;7.50;;;0.00;96.50;;;;;;5067060;28;20152;-70
2024/01/21 09:25:32;;;;;;;13.18;6.38;;;0.00;95.00;;;;;;5068105;28;20213;-73
2024/01/21 09:27:58;;;;;;;15.38;6.75;;;0.10;95.30;;;;;;5061015;28;20072;-71
2024/01/21 09:30:23;;;;;;;14.35;7.10;;;0.10;95.70;;;;;;5056595;28;20130;-72
2024/01/21 09:32:49;;;;;;;12.98;6.75;;;0.20;96.30;;;;;;5058550;28;20548;-70
2024/01/21 09:35:15;;;;;;;13.20;6.65;;;0.20;95.50;;;;;;5062357;28;20039;-73
2024/01/21 09:37:40;;;;;;;11.00;6.00;;;0.20;95.40;;;;;;5066058;28;20047;-70
2024/01/21 09:40:20;;;;;;;11.93;5.95;;;0.20;95.40;;;;;;5064086;28;20101;-69
2024/01/21 09:42:45;;;;;;;10.23;5.60;;;0.30;94.20;;;;;;5064250;28;20040;-71
2024/01/21 09:45:12;;;;;;;12.25;5.90;;;0.40;93.40;;;;;;5064579;28;20040;-71
2024/01/21 09:47:38;;;;;;;14.55;6.50;;;0.40;93.00;;;;;;5067871;28;20048;-69
2024/01/21 09:50:06;;;;;;;14.20;6.38;;;0.50;93.10;;;;;;5058273;28;20037;-71
2024/01/21 09:52:35;;;;;;;15.07;7.07;;;0.50;92.20;;;;;;5062139;28;20097;-71
2024/01/21 09:55:02;;;;;;;14.80;6.60;;;0.50;91.40;;;;;;5054678;28;20040;-69
2024/01/21 09:57:27;;;;;;;15.18;7.75;;;0.60;92.40;;;;;;5061498;28;20420;-70
2024/01/21 09:59:55;;;;;;;13.25;6.13;;;0.60;92.50;;;;;;5051276;28;20041;-70
2024/01/21 10:02:22;;;;;;;18.45;7.53;;;0.50;92.50;;;;;;5055793;28;20047;-68
2024/01/21 10:04:48;;;;;;;11.85;5.65;;;0.50;92.70;;;;;;5058114;28;20044;-69
2024/01/21 10:07:14;;;;;;;14.60;6.90;;;0.60;92.60;;;;;;5066613;28;20044;-70
2024/01/21 10:09:39;;;;;;;13.93;7.05;;;0.60;92.50;;;;;;5065680;28;20044;-69
2024/01/21 10:12:06;;;;;;;17.02;7.60;;;0.60;94.20;;;;;;5055861;28;20082;-70
2024/01/21 10:14:33;;;;;;;15.02;7.07;;;0.60;93.70;;;;;;5058244;28;20960;-70
2024/01/21 10:17:02;;;;;;;14.02;6.68;;;0.60;93.20;;;;;;5059432;28;20094;-71
2024/01/21 10:19:33;;;;;;;16.33;7.03;;;0.60;92.40;;;;;;5051856;28;20055;-70
2024/01/21 10:22:13;;;;;;;16.65;6.88;;;0.50;93.80;;;;;;5058270;28;20040;-70
2024/01/21 10:24:44;;;;;;;14.45;6.53;;;0.50;94.50;;;;;;5058673;28;20116;-70
2024/01/21 10:27:11;;;;;;;11.85;6.13;;;0.70;94.10;;;;;;5059212;28;20041;-70
2024/01/21 10:29:41;;;;;;;16.55;7.70;;;0.80;93.80;;;;;;5064417;28;20132;-70
2024/01/21 10:32:10;;;;;;;14.43;6.38;;;0.90;94.00;;;;;;5063879;28;20540;-70
2024/01/21 10:34:49;;;;;;;12.60;6.30;;;0.90;92.80;;;;;;5065860;28;20049;-69
2024/01/21 10:37:16;;;;;;;13.25;6.93;;;1.00;92.70;;;;;;5058743;28;20412;-69
2024/01/21 10:39:46;;;;;;;12.65;6.05;;;1.00;92.40;;;;;;5063919;28;20037;-70
2024/01/21 10:42:16;;;;;;;11.95;5.13;;;1.00;92.60;;;;;;5061996;28;20041;-71
2024/01/21 10:44:43;;;;;;;11.90;5.45;;;1.10;92.10;;;;;;5066490;28;20117;-71
2024/01/21 10:47:09;;;;;;;11.10;5.50;;;1.50;92.30;;;;;;5063497;28;20152;-72
2024/01/21 10:49:35;;;;;;;9.07;4.93;;;2.00;90.80;;;;;;5068080;28;20746;-71
2024/01/21 10:52:01;;;;;;;8.93;4.68;;;2.20;89.90;;;;;;5072538;28;20041;-71
2024/01/21 10:54:28;;;;;;;12.48;5.80;;;2.60;90.40;;;;;;5060723;28;20048;-70
2024/01/21 10:56:54;;;;;;;9.65;5.63;;;2.90;90.00;;;;;;5071208;28;20042;-71
2024/01/21 10:59:21;;;;;;;14.98;5.40;;;3.10;89.50;;;;;;5063433;28;20040;-68
2024/01/21 11:01:48;;;;;;;16.75;6.18;;;3.30;90.10;;;;;;5070671;28;20131;-70
2024/01/21 11:04:14;;;;;;;9.55;4.80;;;3.20;91.90;;;;;;5064776;28;20131;-72
2024/01/21 11:06:43;;;;;;;9.35;4.72;;;3.10;93.30;;;;;;5058314;28;20072;-72
2024/01/21 11:09:09;;;;;;;10.52;4.75;;;2.90;94.40;;;;;;5073158;28;20105;-73
2024/01/21 11:11:42;;;;;;;13.70;5.70;;;3.00;96.20;;;;;;5068073;28;20095;-72
2024/01/21 11:14:32;;;;;;;11.80;4.65;;;3.10;97.10;;;;;;5062973;28;20063;-70
2024/01/21 11:17:01;;;;;;;9.00;4.65;;;3.00;99.40;;;;;;5060969;28;20053;-70
2024/01/21 11:19:31;;;;;;;10.05;4.90;;;2.90;99.90;;;;;;5062097;28;20468;-73
2024/01/21 11:21:58;;;;;;;9.48;5.30;;;3.00;99.90;;;;;;5062119;28;20032;-73
2024/01/21 11:24:30;;;;;;;10.88;4.85;;;3.10;99.90;;;;;;5061514;28;20044;-73
2024/01/21 11:26:57;;;;;;;11.57;5.38;;;3.10;99.90;;;;;;5063212;28;20052;-72
2024/01/21 11:29:33;;;;;;;9.25;5.15;;;2.90;99.90;;;;;;5063027;28;20055;-71
2024/01/21 11:32:03;;;;;;;9.13;4.87;;;2.90;99.90;;;;;;5056493;28;20106;-70
2024/01/21 11:34:39;;;;;;;9.48;5.40;;;2.90;99.90;;;;;;5062322;28;20328;-70
2024/01/21 11:37:14;;;;;;;10.65;5.03;;;3.00;99.90;;;;;;5063357;28;20491;-70
2024/01/21 11:39:40;;;;;;;10.00;4.50;;;3.10;99.90;;;;;;5064303;28;20041;-72
2024/01/21 11:42:07;;;;;;;10.05;5.00;;;3.20;99.90;;;;;;5066317;28;20048;-73
2024/01/21 11:44:33;;;;;;;10.23;5.65;;;3.30;99.90;;;;;;5068613;28;20554;-73
2024/01/21 11:47:02;;;;;;;10.27;5.43;;;3.30;99.90;;;;;;5065620;28;20040;-73
2024/01/21 11:49:28;;;;;;;12.35;5.95;;;3.20;99.90;;;;;;5065814;28;20098;-71
2024/01/21 11:51:54;;;;;;;11.10;5.22;;;3.10;99.90;;;;;;5059278;28;20061;-74
2024/01/21 11:54:20;;;;;;;13.50;5.97;;;3.00;99.90;;;;;;5066212;28;20068;-75
2024/01/21 11:56:46;;;;;;;10.10;5.40;;;3.00;99.90;;;;;;5065749;28;20040;-75
2024/01/21 11:59:12;;;;;;;10.70;5.38;;;2.90;99.90;;;;;;5066786;28;20480;-73
2024/01/21 12:01:38;;;;;;;12.30;6.00;;;2.80;99.90;;;;;;5064191;28;20534;-72
2024/01/21 12:04:09;;;;;;;12.00;5.88;;;2.80;99.90;;;;;;5067873;28;20126;-70
2024/01/21 12:06:41;;;;;;;11.70;5.97;;;2.70;99.90;;;;;;5065741;28;20587;-70
2024/01/21 12:09:07;;;;;;;12.82;6.13;;;2.70;99.90;;;;;;5063767;28;20086;-69
2024/01/21 12:11:35;;;;;;;11.18;6.07;;;2.70;99.90;;;;;;5062792;28;20047;-73
2024/01/21 12:14:03;;;;;;;13.05;5.88;;;2.70;99.90;;;;;;5063229;28;20047;-70
2024/01/21 12:16:29;;;;;;;10.00;5.45;;;2.60;99.90;;;;;;5066363;28;20052;-70
2024/01/21 12:18:55;;;;;;;10.43;5.57;;;2.60;99.90;;;;;;5074720;28;20024;-68
2024/01/21 12:21:23;;;;;;;9.73;5.38;;;2.60;99.90;;;;;;5078683;28;20396;-66
2024/01/21 12:23:51;;;;;;;12.77;5.65;;;2.60;99.90;;;;;;5064616;28;20070;-67
2024/01/21 12:26:18;;;;;;;10.05;5.15;;;2.50;99.90;;;;;;5071545;28;20055;-68
2024/01/21 12:28:59;;;;;;;9.90;4.85;;;2.50;99.90;;;;;;5069547;28;20522;-66
2024/01/21 12:31:29;;;;;;;14.20;5.75;;;2.50;99.90;;;;;;5064736;28;20141;-68
2024/01/21 12:33:56;;;;;;;7.65;4.53;;;2.60;99.90;;;;;;5066642;28;20040;-69
2024/01/21 12:36:22;;;;;;;8.85;3.92;;;2.70;99.90;;;;;;5067980;28;20044;-70
2024/01/21 12:38:51;;;;;;;7.40;4.40;;;2.80;99.90;;;;;;5071323;28;20190;-67
2024/01/21 12:41:18;;;;;;;9.02;4.70;;;2.70;99.90;;;;;;5061612;28;20037;-70
2024/01/21 12:43:43;;;;;;;11.43;5.28;;;2.70;99.90;;;;;;5067827;28;20038;-69
2024/01/21 12:46:10;;;;;;;10.70;4.97;;;2.70;99.90;;;;;;5064078;28;20041;-66
2024/01/21 12:48:36;;;;;;;10.50;4.70;;;2.70;99.90;;;;;;5061291;28;20040;-75